sensor_id;sensor_type;location;lat;lon;timestamp;temperature;humidity
5940;DHT22;2995;-31.998;115.906;2023-07-31T00:01:01;11.30;99.90
5940;DHT22;2995;-31.998;115.906;2023-07-31T00:03:32;11.40;99.90
5940;DHT22;2995;-31.998;115.906;2023-07-31T00:06:03;11.40;99.90
5940;DHT22;2995;-31.998;115.906;2023-07-31T00:08:35;11.40;99.90
5940;DHT22;2995;-31.998;115.906;2023-07-31T00:11:08;11.50;99.90
5940;DHT22;2995;-31.998;115.906;2023-07-31T00:13:39;11.50;99.90
5940;DHT22;2995;-31.998;115.906;2023-07-31T00:16:10;11.60;99.90
5940;DHT22;2995;-31.998;115.906;2023-07-31T00:18:41;11.60;99.90
5940;DHT22;2995;-31.998;115.906;2023-07-31T00:21:13;11.80;99.90
5940;DHT22;2995;-31.998;115.906;2023-07-31T00:23:44;11.70;99.90
5940;DHT22;2995;-31.998;115.906;2023-07-31T00:26:17;11.70;99.90
5940;DHT22;2995;-31.998;115.906;2023-07-31T00:28:48;11.80;99.90
5940;DHT22;2995;-31.998;115.906;2023-07-31T00:31:19;11.80;99.90
5940;DHT22;2995;-31.998;115.906;2023-07-31T00:33:51;11.90;99.90
5940;DHT22;2995;-31.998;115.906;2023-07-31T00:36:22;12.00;99.90
5940;DHT22;2995;-31.998;115.906;2023-07-31T00:38:53;12.10;99.90
5940;DHT22;2995;-31.998;115.906;2023-07-31T00:41:26;12.20;99.90
5940;DHT22;2995;-31.998;115.906;2023-07-31T00:43:58;12.30;99.90
5940;DHT22;2995;-31.998;115.906;2023-07-31T00:46:29;12.40;99.90
5940;DHT22;2995;-31.998;115.906;2023-07-31T00:49:00;12.60;99.90
5940;DHT22;2995;-31.998;115.906;2023-07-31T00:51:32;12.70;99.90
5940;DHT22;2995;-31.998;115.906;2023-07-31T00:54:04;12.90;99.90
5940;DHT22;2995;-31.998;115.906;2023-07-31T00:56:39;12.90;99.90
5940;DHT22;2995;-31.998;115.906;2023-07-31T00:59:11;13.10;99.90
5940;DHT22;2995;-31.998;115.906;2023-07-31T01:01:42;13.30;99.90
5940;DHT22;2995;-31.998;115.906;2023-07-31T01:04:14;13.40;99.90
5940;DHT22;2995;-31.998;115.906;2023-07-31T01:06:51;13.40;99.90
5940;DHT22;2995;-31.998;115.906;2023-07-31T01:09:32;13.50;99.90
5940;DHT22;2995;-31.998;115.906;2023-07-31T01:12:09;13.60;99.90
5940;DHT22;2995;-31.998;115.906;2023-07-31T01:14:52;13.70;99.90
5940;DHT22;2995;-31.998;115.906;2023-07-31T01:17:32;13.70;99.90
5940;DHT22;2995;-31.998;115.906;2023-07-31T01:20:05;13.70;99.90
5940;DHT22;2995;-31.998;115.906;2023-07-31T01:22:58;13.80;99.90
5940;DHT22;2995;-31.998;115.906;2023-07-31T01:25:59;13.80;99.90
5940;DHT22;2995;-31.998;115.906;2023-07-31T01:28:38;14.00;99.90
5940;DHT22;2995;-31.998;115.906;2023-07-31T01:31:14;14.10;99.90
5940;DHT22;2995;-31.998;115.906;2023-07-31T01:33:46;14.20;99.90
5940;DHT22;2995;-31.998;115.906;2023-07-31T01:36:18;14.30;99.90
5940;DHT22;2995;-31.998;115.906;2023-07-31T01:38:49;14.40;99.90
5940;DHT22;2995;-31.998;115.906;2023-07-31T01:41:22;14.40;99.90
5940;DHT22;2995;-31.998;115.906;2023-07-31T01:43:54;14.60;99.90
5940;DHT22;2995;-31.998;115.906;2023-07-31T01:46:25;14.80;99.90
5940;DHT22;2995;-31.998;115.906;2023-07-31T01:48:56;14.90;99.90
5940;DHT22;2995;-31.998;115.906;2023-07-31T01:51:27;15.00;99.90
5940;DHT22;2995;-31.998;115.906;2023-07-31T01:54:02;15.10;99.90
5940;DHT22;2995;-31.998;115.906;2023-07-31T01:56:36;15.20;99.90
5940;DHT22;2995;-31.998;115.906;2023-07-31T01:59:07;15.30;99.90
5940;DHT22;2995;-31.998;115.906;2023-07-31T02:01:39;15.30;99.90
5940;DHT22;2995;-31.998;115.906;2023-07-31T02:04:11;15.40;99.90
5940;DHT22;2995;-31.998;115.906;2023-07-31T02:06:42;15.40;99.90
5940;DHT22;2995;-31.998;115.906;2023-07-31T02:09:14;15.50;99.90
5940;DHT22;2995;-31.998;115.906;2023-07-31T02:11:47;15.50;99.90
5940;DHT22;2995;-31.998;115.906;2023-07-31T02:14:18;15.60;99.90
5940;DHT22;2995;-31.998;115.906;2023-07-31T02:16:49;15.60;99.90
5940;DHT22;2995;-31.998;115.906;2023-07-31T02:19:21;15.70;99.90
5940;DHT22;2995;-31.998;115.906;2023-07-31T02:21:52;15.80;99.90
5940;DHT22;2995;-31.998;115.906;2023-07-31T02:24:23;15.90;99.90
5940;DHT22;2995;-31.998;115.906;2023-07-31T02:26:56;16.00;99.90
5940;DHT22;2995;-31.998;115.906;2023-07-31T02:29:27;16.10;99.90
5940;DHT22;2995;-31.998;115.906;2023-07-31T02:31:59;16.10;99.90
5940;DHT22;2995;-31.998;115.906;2023-07-31T02:34:30;16.20;99.90
5940;DHT22;2995;-31.998;115.906;2023-07-31T02:37:01;16.30;99.90
5940;DHT22;2995;-31.998;115.906;2023-07-31T02:39:32;16.40;99.90
5940;DHT22;2995;-31.998;115.906;2023-07-31T02:42:06;16.50;99.90
5940;DHT22;2995;-31.998;115.906;2023-07-31T02:44:37;16.50;99.90
5940;DHT22;2995;-31.998;115.906;2023-07-31T02:47:08;16.70;99.90
5940;DHT22;2995;-31.998;115.906;2023-07-31T02:49:40;16.80;99.90
5940;DHT22;2995;-31.998;115.906;2023-07-31T02:52:11;16.90;99.90
5940;DHT22;2995;-31.998;115.906;2023-07-31T02:54:42;16.90;99.90
5940;DHT22;2995;-31.998;115.906;2023-07-31T02:57:15;17.00;99.90
5940;DHT22;2995;-31.998;115.906;2023-07-31T02:59:46;17.00;99.90
5940;DHT22;2995;-31.998;115.906;2023-07-31T03:02:18;17.10;99.90
5940;DHT22;2995;-31.998;115.906;2023-07-31T03:04:49;17.20;99.90
5940;DHT22;2995;-31.998;115.906;2023-07-31T03:07:20;17.20;99.90
5940;DHT22;2995;-31.998;115.906;2023-07-31T03:09:51;17.30;99.90
5940;DHT22;2995;-31.998;115.906;2023-07-31T03:12:25;17.40;99.90
5940;DHT22;2995;-31.998;115.906;2023-07-31T03:14:56;17.50;99.90
5940;DHT22;2995;-31.998;115.906;2023-07-31T03:17:27;17.60;99.90
5940;DHT22;2995;-31.998;115.906;2023-07-31T03:19:58;17.70;99.90
5940;DHT22;2995;-31.998;115.906;2023-07-31T03:22:29;17.70;99.90
5940;DHT22;2995;-31.998;115.906;2023-07-31T03:25:01;17.80;99.90
5940;DHT22;2995;-31.998;115.906;2023-07-31T03:27:34;17.90;99.90
5940;DHT22;2995;-31.998;115.906;2023-07-31T03:30:06;17.90;99.90
5940;DHT22;2995;-31.998;115.906;2023-07-31T03:32:38;18.00;99.90
5940;DHT22;2995;-31.998;115.906;2023-07-31T03:35:10;18.10;99.90
5940;DHT22;2995;-31.998;115.906;2023-07-31T03:37:41;18.10;99.90
5940;DHT22;2995;-31.998;115.906;2023-07-31T03:40:12;18.20;99.90
5940;DHT22;2995;-31.998;115.906;2023-07-31T03:42:46;18.30;99.90
5940;DHT22;2995;-31.998;115.906;2023-07-31T03:45:17;18.40;99.90
5940;DHT22;2995;-31.998;115.906;2023-07-31T03:47:48;18.30;99.90
5940;DHT22;2995;-31.998;115.906;2023-07-31T03:50:19;18.40;99.90
5940;DHT22;2995;-31.998;115.906;2023-07-31T03:52:50;18.30;99.90
5940;DHT22;2995;-31.998;115.906;2023-07-31T03:55:22;18.40;99.90
5940;DHT22;2995;-31.998;115.906;2023-07-31T03:57:55;18.50;99.90
5940;DHT22;2995;-31.998;115.906;2023-07-31T04:00:27;18.50;99.90
5940;DHT22;2995;-31.998;115.906;2023-07-31T04:02:58;18.60;99.90
5940;DHT22;2995;-31.998;115.906;2023-07-31T04:05:31;18.60;99.90
5940;DHT22;2995;-31.998;115.906;2023-07-31T04:08:03;18.60;99.90
5940;DHT22;2995;-31.998;115.906;2023-07-31T04:10:34;18.70;99.90
5940;DHT22;2995;-31.998;115.906;2023-07-31T04:13:07;18.70;99.90
5940;DHT22;2995;-31.998;115.906;2023-07-31T04:15:38;18.70;99.90
5940;DHT22;2995;-31.998;115.906;2023-07-31T04:18:10;18.80;99.90
5940;DHT22;2995;-31.998;115.906;2023-07-31T04:20:41;18.90;99.90
5940;DHT22;2995;-31.998;115.906;2023-07-31T04:23:13;18.80;99.90
5940;DHT22;2995;-31.998;115.906;2023-07-31T04:25:44;18.90;99.90
5940;DHT22;2995;-31.998;115.906;2023-07-31T04:28:17;18.80;99.90
5940;DHT22;2995;-31.998;115.906;2023-07-31T04:30:48;18.80;99.90
5940;DHT22;2995;-31.998;115.906;2023-07-31T04:33:20;18.90;99.90
5940;DHT22;2995;-31.998;115.906;2023-07-31T04:35:52;18.90;99.90
5940;DHT22;2995;-31.998;115.906;2023-07-31T04:38:24;18.90;99.90
5940;DHT22;2995;-31.998;115.906;2023-07-31T04:40:55;18.90;99.90
5940;DHT22;2995;-31.998;115.906;2023-07-31T04:43:28;19.10;99.90
5940;DHT22;2995;-31.998;115.906;2023-07-31T04:45:59;19.20;99.90
5940;DHT22;2995;-31.998;115.906;2023-07-31T04:48:30;19.10;99.90
5940;DHT22;2995;-31.998;115.906;2023-07-31T04:51:01;19.00;99.90
5940;DHT22;2995;-31.998;115.906;2023-07-31T04:53:33;18.80;99.90
5940;DHT22;2995;-31.998;115.906;2023-07-31T04:56:04;18.80;99.90
5940;DHT22;2995;-31.998;115.906;2023-07-31T04:58:37;18.70;99.90
5940;DHT22;2995;-31.998;115.906;2023-07-31T05:01:08;18.80;99.90
5940;DHT22;2995;-31.998;115.906;2023-07-31T05:03:40;18.90;99.90
5940;DHT22;2995;-31.998;115.906;2023-07-31T05:06:11;19.10;99.90
5940;DHT22;2995;-31.998;115.906;2023-07-31T05:08:43;19.30;99.90
5940;DHT22;2995;-31.998;115.906;2023-07-31T05:11:14;19.40;99.90
5940;DHT22;2995;-31.998;115.906;2023-07-31T05:13:48;19.60;99.90
5940;DHT22;2995;-31.998;115.906;2023-07-31T05:16:19;19.70;99.90
5940;DHT22;2995;-31.998;115.906;2023-07-31T05:18:50;19.70;99.90
5940;DHT22;2995;-31.998;115.906;2023-07-31T05:21:21;19.70;99.90
5940;DHT22;2995;-31.998;115.906;2023-07-31T05:23:53;19.70;99.90
5940;DHT22;2995;-31.998;115.906;2023-07-31T05:26:24;19.70;99.90
5940;DHT22;2995;-31.998;115.906;2023-07-31T05:28:57;19.80;99.90
5940;DHT22;2995;-31.998;115.906;2023-07-31T05:31:28;19.90;99.90
5940;DHT22;2995;-31.998;115.906;2023-07-31T05:34:00;20.00;99.90
5940;DHT22;2995;-31.998;115.906;2023-07-31T05:36:31;20.00;99.90
5940;DHT22;2995;-31.998;115.906;2023-07-31T05:39:03;20.10;99.90
5940;DHT22;2995;-31.998;115.906;2023-07-31T05:41:37;20.00;99.90
5940;DHT22;2995;-31.998;115.906;2023-07-31T05:44:10;20.10;99.90
5940;DHT22;2995;-31.998;115.906;2023-07-31T05:46:41;20.10;99.90
5940;DHT22;2995;-31.998;115.906;2023-07-31T05:49:12;19.90;99.90
5940;DHT22;2995;-31.998;115.906;2023-07-31T05:51:43;19.90;99.90
5940;DHT22;2995;-31.998;115.906;2023-07-31T05:54:15;19.80;99.90
5940;DHT22;2995;-31.998;115.906;2023-07-31T05:56:46;19.70;99.90
5940;DHT22;2995;-31.998;115.906;2023-07-31T05:59:19;19.60;99.90
5940;DHT22;2995;-31.998;115.906;2023-07-31T06:01:51;19.70;99.90
5940;DHT22;2995;-31.998;115.906;2023-07-31T06:04:22;19.80;99.90
5940;DHT22;2995;-31.998;115.906;2023-07-31T06:06:53;20.00;99.90
5940;DHT22;2995;-31.998;115.906;2023-07-31T06:09:24;19.90;99.90
5940;DHT22;2995;-31.998;115.906;2023-07-31T06:11:56;19.70;99.90
5940;DHT22;2995;-31.998;115.906;2023-07-31T06:14:29;19.40;99.90
5940;DHT22;2995;-31.998;115.906;2023-07-31T06:17:00;19.40;99.90
5940;DHT22;2995;-31.998;115.906;2023-07-31T06:19:34;19.40;99.90
5940;DHT22;2995;-31.998;115.906;2023-07-31T06:22:06;19.50;99.90
5940;DHT22;2995;-31.998;115.906;2023-07-31T06:24:37;19.70;99.90
5940;DHT22;2995;-31.998;115.906;2023-07-31T06:27:08;19.80;99.90
5940;DHT22;2995;-31.998;115.906;2023-07-31T06:29:42;19.80;99.90
5940;DHT22;2995;-31.998;115.906;2023-07-31T06:32:13;19.90;99.90
5940;DHT22;2995;-31.998;115.906;2023-07-31T06:34:44;19.90;99.90
5940;DHT22;2995;-31.998;115.906;2023-07-31T06:37:15;19.90;99.90
5940;DHT22;2995;-31.998;115.906;2023-07-31T06:39:47;19.90;99.90
5940;DHT22;2995;-31.998;115.906;2023-07-31T06:42:18;19.90;99.90
5940;DHT22;2995;-31.998;115.906;2023-07-31T06:44:51;19.90;99.90
5940;DHT22;2995;-31.998;115.906;2023-07-31T06:47:23;19.80;99.90
5940;DHT22;2995;-31.998;115.906;2023-07-31T06:49:54;19.80;99.90
5940;DHT22;2995;-31.998;115.906;2023-07-31T06:52:25;19.80;99.90
5940;DHT22;2995;-31.998;115.906;2023-07-31T06:55:15;19.80;99.90
5940;DHT22;2995;-31.998;115.906;2023-07-31T06:57:48;19.80;99.90
5940;DHT22;2995;-31.998;115.906;2023-07-31T07:00:22;19.90;99.90
5940;DHT22;2995;-31.998;115.906;2023-07-31T07:02:53;19.80;99.90
5940;DHT22;2995;-31.998;115.906;2023-07-31T07:05:24;19.90;99.90
5940;DHT22;2995;-31.998;115.906;2023-07-31T07:07:56;19.80;99.90
5940;DHT22;2995;-31.998;115.906;2023-07-31T07:10:27;19.80;99.90
5940;DHT22;2995;-31.998;115.906;2023-07-31T07:12:58;19.70;99.90
5940;DHT22;2995;-31.998;115.906;2023-07-31T07:15:31;19.60;99.90
5940;DHT22;2995;-31.998;115.906;2023-07-31T07:18:02;19.50;99.90
5940;DHT22;2995;-31.998;115.906;2023-07-31T07:20:34;19.70;99.90
5940;DHT22;2995;-31.998;115.906;2023-07-31T07:23:05;19.70;99.90
5940;DHT22;2995;-31.998;115.906;2023-07-31T07:25:39;19.70;99.90
5940;DHT22;2995;-31.998;115.906;2023-07-31T07:28:10;19.70;99.90
5940;DHT22;2995;-31.998;115.906;2023-07-31T07:30:43;19.60;99.90
5940;DHT22;2995;-31.998;115.906;2023-07-31T07:33:15;19.60;99.90
5940;DHT22;2995;-31.998;115.906;2023-07-31T07:35:46;19.50;99.90
5940;DHT22;2995;-31.998;115.906;2023-07-31T07:38:17;19.50;99.90
5940;DHT22;2995;-31.998;115.906;2023-07-31T07:40:49;19.40;99.90
5940;DHT22;2995;-31.998;115.906;2023-07-31T07:43:21;19.40;99.90
5940;DHT22;2995;-31.998;115.906;2023-07-31T07:45:55;19.40;99.90
5940;DHT22;2995;-31.998;115.906;2023-07-31T07:48:26;19.40;99.90
5940;DHT22;2995;-31.998;115.906;2023-07-31T07:50:57;19.30;99.90
5940;DHT22;2995;-31.998;115.906;2023-07-31T07:53:28;19.30;99.90
5940;DHT22;2995;-31.998;115.906;2023-07-31T07:56:00;19.20;99.90
5940;DHT22;2995;-31.998;115.906;2023-07-31T07:58:31;19.00;99.90
5940;DHT22;2995;-31.998;115.906;2023-07-31T08:01:04;19.00;99.90
5940;DHT22;2995;-31.998;115.906;2023-07-31T08:03:35;19.00;99.90
5940;DHT22;2995;-31.998;115.906;2023-07-31T08:06:06;18.90;99.90
5940;DHT22;2995;-31.998;115.906;2023-07-31T08:08:41;18.60;99.90
5940;DHT22;2995;-31.998;115.906;2023-07-31T08:11:12;18.50;99.90
5940;DHT22;2995;-31.998;115.906;2023-07-31T08:13:44;18.40;99.90
5940;DHT22;2995;-31.998;115.906;2023-07-31T08:16:17;18.50;99.90
5940;DHT22;2995;-31.998;115.906;2023-07-31T08:18:48;18.60;99.90
5940;DHT22;2995;-31.998;115.906;2023-07-31T08:21:19;18.50;99.90
5940;DHT22;2995;-31.998;115.906;2023-07-31T08:23:50;18.50;99.90
5940;DHT22;2995;-31.998;115.906;2023-07-31T08:26:22;18.40;99.90
5940;DHT22;2995;-31.998;115.906;2023-07-31T08:28:53;18.40;99.90
5940;DHT22;2995;-31.998;115.906;2023-07-31T08:31:27;18.30;99.90
5940;DHT22;2995;-31.998;115.906;2023-07-31T08:33:59;18.20;99.90
5940;DHT22;2995;-31.998;115.906;2023-07-31T08:36:30;18.10;99.90
5940;DHT22;2995;-31.998;115.906;2023-07-31T08:39:02;18.00;99.90
5940;DHT22;2995;-31.998;115.906;2023-07-31T08:41:38;17.90;99.90
5940;DHT22;2995;-31.998;115.906;2023-07-31T08:44:13;17.90;99.90
5940;DHT22;2995;-31.998;115.906;2023-07-31T08:46:47;17.90;99.90
5940;DHT22;2995;-31.998;115.906;2023-07-31T08:49:19;18.00;99.90
5940;DHT22;2995;-31.998;115.906;2023-07-31T08:51:51;17.80;99.90
5940;DHT22;2995;-31.998;115.906;2023-07-31T08:54:26;17.80;99.90
5940;DHT22;2995;-31.998;115.906;2023-07-31T08:56:59;17.80;99.90
5940;DHT22;2995;-31.998;115.906;2023-07-31T08:59:32;17.70;99.90
5940;DHT22;2995;-31.998;115.906;2023-07-31T09:02:09;17.60;99.90
5940;DHT22;2995;-31.998;115.906;2023-07-31T09:04:40;17.70;99.90
5940;DHT22;2995;-31.998;115.906;2023-07-31T09:07:12;17.70;99.90
5940;DHT22;2995;-31.998;115.906;2023-07-31T09:09:45;17.60;99.90
5940;DHT22;2995;-31.998;115.906;2023-07-31T09:12:17;17.60;99.90
5940;DHT22;2995;-31.998;115.906;2023-07-31T09:14:48;17.50;99.90
5940;DHT22;2995;-31.998;115.906;2023-07-31T09:17:32;17.40;99.90
5940;DHT22;2995;-31.998;115.906;2023-07-31T09:20:15;17.20;99.90
5940;DHT22;2995;-31.998;115.906;2023-07-31T09:22:47;17.20;99.90
5940;DHT22;2995;-31.998;115.906;2023-07-31T09:25:19;17.30;99.90
5940;DHT22;2995;-31.998;115.906;2023-07-31T09:27:53;17.30;99.90
5940;DHT22;2995;-31.998;115.906;2023-07-31T09:30:25;17.10;99.90
5940;DHT22;2995;-31.998;115.906;2023-07-31T09:33:05;17.10;99.90
5940;DHT22;2995;-31.998;115.906;2023-07-31T09:35:37;17.10;99.90
5940;DHT22;2995;-31.998;115.906;2023-07-31T09:38:10;17.10;99.90
5940;DHT22;2995;-31.998;115.906;2023-07-31T09:40:42;17.00;99.90
5940;DHT22;2995;-31.998;115.906;2023-07-31T09:43:17;16.90;99.90
5940;DHT22;2995;-31.998;115.906;2023-07-31T09:45:52;16.80;99.90
5940;DHT22;2995;-31.998;115.906;2023-07-31T09:48:26;16.90;99.90
5940;DHT22;2995;-31.998;115.906;2023-07-31T09:51:05;16.70;99.90
5940;DHT22;2995;-31.998;115.906;2023-07-31T09:53:36;16.60;99.90
5940;DHT22;2995;-31.998;115.906;2023-07-31T09:56:07;16.50;99.90
5940;DHT22;2995;-31.998;115.906;2023-07-31T09:58:39;16.40;99.90
5940;DHT22;2995;-31.998;115.906;2023-07-31T10:01:10;16.30;99.90
5940;DHT22;2995;-31.998;115.906;2023-07-31T10:03:46;16.30;99.90
5940;DHT22;2995;-31.998;115.906;2023-07-31T10:06:17;16.30;99.90
5940;DHT22;2995;-31.998;115.906;2023-07-31T10:08:53;16.20;99.90
5940;DHT22;2995;-31.998;115.906;2023-07-31T10:11:25;16.00;99.90
5940;DHT22;2995;-31.998;115.906;2023-07-31T10:13:58;15.80;99.90
5940;DHT22;2995;-31.998;115.906;2023-07-31T10:16:30;15.80;99.90
5940;DHT22;2995;-31.998;115.906;2023-07-31T10:19:04;15.80;99.90
5940;DHT22;2995;-31.998;115.906;2023-07-31T10:21:36;15.80;99.90
5940;DHT22;2995;-31.998;115.906;2023-07-31T10:24:09;15.70;99.90
5940;DHT22;2995;-31.998;115.906;2023-07-31T10:26:41;15.60;99.90
5940;DHT22;2995;-31.998;115.906;2023-07-31T10:29:17;15.60;99.90
5940;DHT22;2995;-31.998;115.906;2023-07-31T10:31:49;15.70;99.90
5940;DHT22;2995;-31.998;115.906;2023-07-31T10:34:23;15.70;99.90
5940;DHT22;2995;-31.998;115.906;2023-07-31T10:37:19;15.60;99.90
5940;DHT22;2995;-31.998;115.906;2023-07-31T10:39:58;15.30;99.90
5940;DHT22;2995;-31.998;115.906;2023-07-31T10:42:32;15.10;99.90
5940;DHT22;2995;-31.998;115.906;2023-07-31T10:45:05;15.30;99.90
5940;DHT22;2995;-31.998;115.906;2023-07-31T10:47:43;15.30;99.90
5940;DHT22;2995;-31.998;115.906;2023-07-31T10:50:18;15.10;99.90
5940;DHT22;2995;-31.998;115.906;2023-07-31T10:52:53;15.00;99.90
5940;DHT22;2995;-31.998;115.906;2023-07-31T10:55:30;14.90;99.90
5940;DHT22;2995;-31.998;115.906;2023-07-31T10:58:08;14.70;99.90
5940;DHT22;2995;-31.998;115.906;2023-07-31T11:00:40;14.70;99.90
5940;DHT22;2995;-31.998;115.906;2023-07-31T11:03:13;14.80;99.90
5940;DHT22;2995;-31.998;115.906;2023-07-31T11:05:48;15.00;99.90
5940;DHT22;2995;-31.998;115.906;2023-07-31T11:08:22;14.90;99.90
5940;DHT22;2995;-31.998;115.906;2023-07-31T11:11:07;14.80;99.90
5940;DHT22;2995;-31.998;115.906;2023-07-31T11:13:44;14.60;99.90
5940;DHT22;2995;-31.998;115.906;2023-07-31T11:16:17;14.70;99.90
5940;DHT22;2995;-31.998;115.906;2023-07-31T11:18:50;14.70;99.90
5940;DHT22;2995;-31.998;115.906;2023-07-31T11:21:24;14.60;99.90
5940;DHT22;2995;-31.998;115.906;2023-07-31T11:23:58;14.50;99.90
5940;DHT22;2995;-31.998;115.906;2023-07-31T11:26:29;14.40;99.90
5940;DHT22;2995;-31.998;115.906;2023-07-31T11:29:00;14.40;99.90
5940;DHT22;2995;-31.998;115.906;2023-07-31T11:31:31;14.40;99.90
5940;DHT22;2995;-31.998;115.906;2023-07-31T11:34:08;14.40;99.90
5940;DHT22;2995;-31.998;115.906;2023-07-31T11:36:41;14.30;99.90
5940;DHT22;2995;-31.998;115.906;2023-07-31T11:39:23;14.20;99.90
5940;DHT22;2995;-31.998;115.906;2023-07-31T11:42:01;14.00;99.90
5940;DHT22;2995;-31.998;115.906;2023-07-31T11:44:39;14.00;99.90
5940;DHT22;2995;-31.998;115.906;2023-07-31T11:47:16;13.90;99.90
5940;DHT22;2995;-31.998;115.906;2023-07-31T11:49:47;14.10;99.90
5940;DHT22;2995;-31.998;115.906;2023-07-31T11:52:22;14.00;99.90
5940;DHT22;2995;-31.998;115.906;2023-07-31T11:54:53;13.90;99.90
5940;DHT22;2995;-31.998;115.906;2023-07-31T11:57:25;14.00;99.90
5940;DHT22;2995;-31.998;115.906;2023-07-31T11:59:57;13.90;99.90
5940;DHT22;2995;-31.998;115.906;2023-07-31T12:02:28;13.90;99.90
5940;DHT22;2995;-31.998;115.906;2023-07-31T12:05:00;13.90;99.90
5940;DHT22;2995;-31.998;115.906;2023-07-31T12:07:47;13.90;99.90
5940;DHT22;2995;-31.998;115.906;2023-07-31T12:10:29;13.90;99.90
5940;DHT22;2995;-31.998;115.906;2023-07-31T12:13:02;13.90;99.90
5940;DHT22;2995;-31.998;115.906;2023-07-31T12:15:38;13.70;99.90
5940;DHT22;2995;-31.998;115.906;2023-07-31T12:18:11;13.70;99.90
5940;DHT22;2995;-31.998;115.906;2023-07-31T12:20:43;13.60;99.90
5940;DHT22;2995;-31.998;115.906;2023-07-31T12:23:19;13.50;99.90
5940;DHT22;2995;-31.998;115.906;2023-07-31T12:26:02;13.50;99.90
5940;DHT22;2995;-31.998;115.906;2023-07-31T12:28:37;13.40;99.90
5940;DHT22;2995;-31.998;115.906;2023-07-31T12:31:09;13.40;99.90
5940;DHT22;2995;-31.998;115.906;2023-07-31T12:33:41;13.30;99.90
5940;DHT22;2995;-31.998;115.906;2023-07-31T12:36:13;13.30;99.90
5940;DHT22;2995;-31.998;115.906;2023-07-31T12:38:46;13.20;99.90
5940;DHT22;2995;-31.998;115.906;2023-07-31T12:41:17;13.30;99.90
5940;DHT22;2995;-31.998;115.906;2023-07-31T12:43:49;13.30;99.90
5940;DHT22;2995;-31.998;115.906;2023-07-31T12:46:21;13.40;99.90
5940;DHT22;2995;-31.998;115.906;2023-07-31T12:48:53;13.40;99.90
5940;DHT22;2995;-31.998;115.906;2023-07-31T12:51:24;13.30;99.90
5940;DHT22;2995;-31.998;115.906;2023-07-31T12:53:57;13.10;99.90
5940;DHT22;2995;-31.998;115.906;2023-07-31T12:56:28;13.10;99.90
5940;DHT22;2995;-31.998;115.906;2023-07-31T12:58:59;13.00;99.90
5940;DHT22;2995;-31.998;115.906;2023-07-31T13:01:31;13.00;99.90
5940;DHT22;2995;-31.998;115.906;2023-07-31T13:04:02;13.00;99.90
5940;DHT22;2995;-31.998;115.906;2023-07-31T13:06:33;13.00;99.90
5940;DHT22;2995;-31.998;115.906;2023-07-31T13:09:06;12.90;99.90
5940;DHT22;2995;-31.998;115.906;2023-07-31T13:11:37;13.00;99.90
5940;DHT22;2995;-31.998;115.906;2023-07-31T13:14:09;12.90;99.90
5940;DHT22;2995;-31.998;115.906;2023-07-31T13:16:40;12.90;99.90
5940;DHT22;2995;-31.998;115.906;2023-07-31T13:19:11;12.80;99.90
5940;DHT22;2995;-31.998;115.906;2023-07-31T13:21:42;12.80;99.90
5940;DHT22;2995;-31.998;115.906;2023-07-31T13:24:16;12.70;99.90
5940;DHT22;2995;-31.998;115.906;2023-07-31T13:26:47;12.70;99.90
5940;DHT22;2995;-31.998;115.906;2023-07-31T13:29:18;12.60;99.90
5940;DHT22;2995;-31.998;115.906;2023-07-31T13:31:54;12.70;99.90
5940;DHT22;2995;-31.998;115.906;2023-07-31T13:34:25;12.60;99.90
5940;DHT22;2995;-31.998;115.906;2023-07-31T13:36:56;12.70;99.90
5940;DHT22;2995;-31.998;115.906;2023-07-31T13:39:29;12.40;99.90
5940;DHT22;2995;-31.998;115.906;2023-07-31T13:42:01;12.40;99.90
5940;DHT22;2995;-31.998;115.906;2023-07-31T13:44:34;12.50;99.90
5940;DHT22;2995;-31.998;115.906;2023-07-31T13:47:05;12.40;99.90
5940;DHT22;2995;-31.998;115.906;2023-07-31T13:49:37;12.40;99.90
5940;DHT22;2995;-31.998;115.906;2023-07-31T13:52:09;12.40;99.90
5940;DHT22;2995;-31.998;115.906;2023-07-31T13:54:42;12.30;99.90
5940;DHT22;2995;-31.998;115.906;2023-07-31T13:57:14;12.30;99.90
5940;DHT22;2995;-31.998;115.906;2023-07-31T13:59:45;12.20;99.90
5940;DHT22;2995;-31.998;115.906;2023-07-31T14:02:16;12.20;99.90
5940;DHT22;2995;-31.998;115.906;2023-07-31T14:04:47;12.20;99.90
5940;DHT22;2995;-31.998;115.906;2023-07-31T14:07:18;12.20;99.90
5940;DHT22;2995;-31.998;115.906;2023-07-31T14:09:52;12.10;99.90
5940;DHT22;2995;-31.998;115.906;2023-07-31T14:12:24;12.10;99.90
5940;DHT22;2995;-31.998;115.906;2023-07-31T14:14:58;12.00;99.90
5940;DHT22;2995;-31.998;115.906;2023-07-31T14:17:30;12.00;99.90
5940;DHT22;2995;-31.998;115.906;2023-07-31T14:20:01;11.90;99.90
5940;DHT22;2995;-31.998;115.906;2023-07-31T14:22:32;11.90;99.90
5940;DHT22;2995;-31.998;115.906;2023-07-31T14:25:06;11.90;99.90
5940;DHT22;2995;-31.998;115.906;2023-07-31T14:27:38;11.90;99.90
5940;DHT22;2995;-31.998;115.906;2023-07-31T14:30:10;11.90;99.90
5940;DHT22;2995;-31.998;115.906;2023-07-31T14:32:41;11.80;99.90
5940;DHT22;2995;-31.998;115.906;2023-07-31T14:35:12;11.60;99.90
5940;DHT22;2995;-31.998;115.906;2023-07-31T14:37:44;11.50;99.90
5940;DHT22;2995;-31.998;115.906;2023-07-31T14:40:17;11.70;99.90
5940;DHT22;2995;-31.998;115.906;2023-07-31T14:42:48;11.70;99.90
5940;DHT22;2995;-31.998;115.906;2023-07-31T14:45:20;11.70;99.90
5940;DHT22;2995;-31.998;115.906;2023-07-31T14:47:51;11.70;99.90
5940;DHT22;2995;-31.998;115.906;2023-07-31T14:50:22;11.70;99.90
5940;DHT22;2995;-31.998;115.906;2023-07-31T14:52:54;11.60;99.90
5940;DHT22;2995;-31.998;115.906;2023-07-31T14:55:27;11.60;99.90
5940;DHT22;2995;-31.998;115.906;2023-07-31T14:57:58;11.50;99.90
5940;DHT22;2995;-31.998;115.906;2023-07-31T15:00:29;11.60;99.90
5940;DHT22;2995;-31.998;115.906;2023-07-31T15:03:01;11.50;99.90
5940;DHT22;2995;-31.998;115.906;2023-07-31T15:05:32;11.60;99.90
5940;DHT22;2995;-31.998;115.906;2023-07-31T15:08:03;11.50;99.90
5940;DHT22;2995;-31.998;115.906;2023-07-31T15:10:37;11.40;99.90
5940;DHT22;2995;-31.998;115.906;2023-07-31T15:13:08;11.40;99.90
5940;DHT22;2995;-31.998;115.906;2023-07-31T15:15:39;11.40;99.90
5940;DHT22;2995;-31.998;115.906;2023-07-31T15:18:10;11.30;99.90
5940;DHT22;2995;-31.998;115.906;2023-07-31T15:20:41;11.40;99.90
5940;DHT22;2995;-31.998;115.906;2023-07-31T15:23:13;11.30;99.90
5940;DHT22;2995;-31.998;115.906;2023-07-31T15:25:47;11.20;99.90
5940;DHT22;2995;-31.998;115.906;2023-07-31T15:28:18;11.20;99.90
5940;DHT22;2995;-31.998;115.906;2023-07-31T15:30:49;11.20;99.90
5940;DHT22;2995;-31.998;115.906;2023-07-31T15:33:21;11.10;99.90
5940;DHT22;2995;-31.998;115.906;2023-07-31T15:35:52;11.10;99.90
5940;DHT22;2995;-31.998;115.906;2023-07-31T15:38:23;11.10;99.90
5940;DHT22;2995;-31.998;115.906;2023-07-31T15:40:56;11.10;99.90
5940;DHT22;2995;-31.998;115.906;2023-07-31T15:43:28;11.10;99.90
5940;DHT22;2995;-31.998;115.906;2023-07-31T15:46:00;11.10;99.90
5940;DHT22;2995;-31.998;115.906;2023-07-31T15:48:31;11.10;99.90